sensor_id;sensor_type;location;lat;lon;timestamp;pressure;altitude;pressure_sealevel;temperature;humidity
31761;BME280;18335;51.486;7.562;2023-02-12T00:01:36;102327.63;;;7.86;100.00
31761;BME280;18335;51.486;7.562;2023-02-12T00:04:03;102326.38;;;7.77;100.00
31761;BME280;18335;51.486;7.562;2023-02-12T00:06:31;102327.81;;;7.82;100.00
31761;BME280;18335;51.486;7.562;2023-02-12T00:08:57;102324.53;;;7.77;100.00
31761;BME280;18335;51.486;7.562;2023-02-12T00:11:26;102325.78;;;7.72;100.00
31761;BME280;18335;51.486;7.562;2023-02-12T00:13:54;102323.66;;;7.91;100.00
31761;BME280;18335;51.486;7.562;2023-02-12T00:16:24;102315.41;;;7.93;100.00
31761;BME280;18335;51.486;7.562;2023-02-12T00:18:52;102320.06;;;7.91;100.00
31761;BME280;18335;51.486;7.562;2023-02-12T00:21:19;102314.22;;;7.82;100.00
31761;BME280;18335;51.486;7.562;2023-02-12T00:23:47;102313.25;;;7.84;100.00
31761;BME280;18335;51.486;7.562;2023-02-12T00:26:16;102308.81;;;7.68;100.00
31761;BME280;18335;51.486;7.562;2023-02-12T00:28:47;102309.97;;;7.93;100.00
31761;BME280;18335;51.486;7.562;2023-02-12T00:31:15;102309.19;;;7.91;100.00
31761;BME280;18335;51.486;7.562;2023-02-12T00:33:43;102312.00;;;7.89;100.00
31761;BME280;18335;51.486;7.562;2023-02-12T00:36:15;102308.81;;;7.97;100.00
31761;BME280;18335;51.486;7.562;2023-02-12T00:38:43;102304.34;;;7.82;100.00
31761;BME280;18335;51.486;7.562;2023-02-12T00:41:11;102308.03;;;7.80;100.00
31761;BME280;18335;51.486;7.562;2023-02-12T00:43:38;102304.75;;;7.75;100.00
31761;BME280;18335;51.486;7.562;2023-02-12T00:46:05;102303.75;;;7.91;100.00
31761;BME280;18335;51.486;7.562;2023-02-12T00:48:33;102315.72;;;7.88;100.00
31761;BME280;18335;51.486;7.562;2023-02-12T00:51:00;102313.06;;;7.87;100.00
31761;BME280;18335;51.486;7.562;2023-02-12T00:53:27;102316.56;;;7.89;100.00
31761;BME280;18335;51.486;7.562;2023-02-12T00:55:54;102316.75;;;7.86;100.00
31761;BME280;18335;51.486;7.562;2023-02-12T00:58:22;102318.91;;;7.80;100.00
31761;BME280;18335;51.486;7.562;2023-02-12T01:00:50;102319.78;;;7.81;100.00
31761;BME280;18335;51.486;7.562;2023-02-12T01:03:16;102314.34;;;7.81;100.00
31761;BME280;18335;51.486;7.562;2023-02-12T01:05:43;102319.47;;;7.86;100.00
31761;BME280;18335;51.486;7.562;2023-02-12T01:08:11;102322.97;;;7.88;100.00
31761;BME280;18335;51.486;7.562;2023-02-12T01:10:39;102319.66;;;7.82;100.00
31761;BME280;18335;51.486;7.562;2023-02-12T01:13:07;102323.56;;;7.93;100.00
31761;BME280;18335;51.486;7.562;2023-02-12T01:15:35;102318.50;;;7.87;100.00
31761;BME280;18335;51.486;7.562;2023-02-12T01:18:03;102321.34;;;7.85;100.00
31761;BME280;18335;51.486;7.562;2023-02-12T01:20:30;102314.03;;;7.86;100.00
31761;BME280;18335;51.486;7.562;2023-02-12T01:22:57;102316.75;;;7.86;100.00
31761;BME280;18335;51.486;7.562;2023-02-12T01:25:26;102315.03;;;7.85;100.00
31761;BME280;18335;51.486;7.562;2023-02-12T01:27:54;102305.31;;;7.66;100.00
31761;BME280;18335;51.486;7.562;2023-02-12T01:30:21;102308.34;;;7.76;100.00
31761;BME280;18335;51.486;7.562;2023-02-12T01:32:51;102312.00;;;7.75;100.00
31761;BME280;18335;51.486;7.562;2023-02-12T01:35:20;102308.22;;;7.77;100.00
31761;BME280;18335;51.486;7.562;2023-02-12T01:37:46;102310.16;;;7.75;100.00
31761;BME280;18335;51.486;7.562;2023-02-12T01:40:14;102313.47;;;7.80;100.00
31761;BME280;18335;51.486;7.562;2023-02-12T01:42:44;102310.16;;;7.75;100.00
31761;BME280;18335;51.486;7.562;2023-02-12T01:45:45;102312.69;;;7.78;100.00
31761;BME280;18335;51.486;7.562;2023-02-12T01:48:16;102310.66;;;7.82;100.00
31761;BME280;18335;51.486;7.562;2023-02-12T01:50:43;102305.03;;;7.85;100.00
31761;BME280;18335;51.486;7.562;2023-02-12T01:53:13;102311.50;;;7.82;100.00
31761;BME280;18335;51.486;7.562;2023-02-12T01:55:46;102305.22;;;7.82;100.00
31761;BME280;18335;51.486;7.562;2023-02-12T01:58:14;102305.31;;;7.80;100.00
31761;BME280;18335;51.486;7.562;2023-02-12T02:00:41;102308.13;;;7.79;100.00
31761;BME280;18335;51.486;7.562;2023-02-12T02:03:08;102301.63;;;7.82;100.00
31761;BME280;18335;51.486;7.562;2023-02-12T02:05:42;102301.50;;;7.83;100.00
31761;BME280;18335;51.486;7.562;2023-02-12T02:08:09;102307.25;;;7.78;100.00
31761;BME280;18335;51.486;7.562;2023-02-12T02:10:38;102298.41;;;7.75;100.00
31761;BME280;18335;51.486;7.562;2023-02-12T02:13:05;102300.84;;;7.79;100.00
31761;BME280;18335;51.486;7.562;2023-02-12T02:15:56;102295.88;;;7.86;100.00
31761;BME280;18335;51.486;7.562;2023-02-12T02:18:31;102298.03;;;7.81;100.00
31761;BME280;18335;51.486;7.562;2023-02-12T02:21:18;102299.28;;;7.90;100.00
31761;BME280;18335;51.486;7.562;2023-02-12T02:24:32;102302.19;;;7.87;100.00
31761;BME280;18335;51.486;7.562;2023-02-12T02:27:14;102303.47;;;7.81;100.00
31761;BME280;18335;51.486;7.562;2023-02-12T02:32:43;102293.56;;;7.80;100.00
31761;BME280;18335;51.486;7.562;2023-02-12T02:35:18;102296.97;;;7.84;100.00
31761;BME280;18335;51.486;7.562;2023-02-12T02:37:53;102279.22;;;7.78;100.00
31761;BME280;18335;51.486;7.562;2023-02-12T02:40:25;102277.16;;;7.82;100.00
31761;BME280;18335;51.486;7.562;2023-02-12T02:42:56;102278.44;;;7.76;100.00
31761;BME280;18335;51.486;7.562;2023-02-12T02:45:30;102284.34;;;7.82;100.00
31761;BME280;18335;51.486;7.562;2023-02-12T02:48:03;102277.16;;;7.82;100.00
31761;BME280;18335;51.486;7.562;2023-02-12T02:50:34;102278.50;;;7.89;100.00
31761;BME280;18335;51.486;7.562;2023-02-12T02:53:07;102282.81;;;7.78;100.00
31761;BME280;18335;51.486;7.562;2023-02-12T02:55:50;102283.56;;;7.80;100.00
31761;BME280;18335;51.486;7.562;2023-02-12T02:58:21;102280.66;;;7.84;100.00
31761;BME280;18335;51.486;7.562;2023-02-12T03:00:54;102286.28;;;7.80;100.00
31761;BME280;18335;51.486;7.562;2023-02-12T03:03:28;102287.06;;;7.68;100.00
31761;BME280;18335;51.486;7.562;2023-02-12T03:06:00;102278.22;;;7.65;100.00
31761;BME280;18335;51.486;7.562;2023-02-12T03:08:33;102285.34;;;7.67;100.00
31761;BME280;18335;51.486;7.562;2023-02-12T03:11:04;102274.28;;;7.70;100.00
31761;BME280;18335;51.486;7.562;2023-02-12T03:13:37;102277.75;;;7.72;100.00
31761;BME280;18335;51.486;7.562;2023-02-12T03:16:08;102276.38;;;7.65;100.00
31761;BME280;18335;51.486;7.562;2023-02-12T03:18:41;102281.03;;;7.77;100.00
31761;BME280;18335;51.486;7.562;2023-02-12T03:21:13;102276.56;;;7.76;100.00
31761;BME280;18335;51.486;7.562;2023-02-12T03:23:46;102283.00;;;7.75;100.00
31761;BME280;18335;51.486;7.562;2023-02-12T03:26:17;102280.66;;;7.69;100.00
31761;BME280;18335;51.486;7.562;2023-02-12T03:28:47;102280.47;;;7.72;100.00
31761;BME280;18335;51.486;7.562;2023-02-12T03:31:20;102282.00;;;7.76;100.00
31761;BME280;18335;51.486;7.562;2023-02-12T03:34:03;102281.81;;;7.79;100.00
31761;BME280;18335;51.486;7.562;2023-02-12T03:36:37;102283.56;;;7.80;100.00
31761;BME280;18335;51.486;7.562;2023-02-12T03:39:11;102287.06;;;7.68;100.00
31761;BME280;18335;51.486;7.562;2023-02-12T03:41:42;102284.28;;;7.70;100.00
31761;BME280;18335;51.486;7.562;2023-02-12T03:44:19;102290.28;;;7.61;100.00
31761;BME280;18335;51.486;7.562;2023-02-12T03:46:56;102294.06;;;7.72;100.00
31761;BME280;18335;51.486;7.562;2023-02-12T03:49:30;102286.88;;;7.71;100.00
31761;BME280;18335;51.486;7.562;2023-02-12T03:51:58;102293.69;;;7.64;100.00
31761;BME280;18335;51.486;7.562;2023-02-12T03:54:25;102290.38;;;7.73;100.00
31761;BME280;18335;51.486;7.562;2023-02-12T03:56:54;102292.81;;;7.64;100.00
31761;BME280;18335;51.486;7.562;2023-02-12T03:59:23;102298.41;;;7.75;100.00
31761;BME280;18335;51.486;7.562;2023-02-12T04:01:52;102287.56;;;7.75;100.00
31761;BME280;18335;51.486;7.562;2023-02-12T04:04:20;102297.63;;;7.59;100.00
31761;BME280;18335;51.486;7.562;2023-02-12T04:06:49;102292.69;;;7.65;100.00
31761;BME280;18335;51.486;7.562;2023-02-12T04:09:16;102293.50;;;7.67;100.00
31761;BME280;18335;51.486;7.562;2023-02-12T04:11:52;102303.06;;;7.59;100.00
31761;BME280;18335;51.486;7.562;2023-02-12T04:14:26;102303.56;;;7.65;100.00
31761;BME280;18335;51.486;7.562;2023-02-12T04:16:59;102308.13;;;7.79;100.00
31761;BME280;18335;51.486;7.562;2023-02-12T04:19:34;102306.88;;;7.70;100.00
31761;BME280;18335;51.486;7.562;2023-02-12T04:22:25;102303.84;;;7.75;100.00
31761;BME280;18335;51.486;7.562;2023-02-12T04:25:01;102301.44;;;7.70;100.00
31761;BME280;18335;51.486;7.562;2023-02-12T04:27:36;102311.63;;;7.67;100.00
31761;BME280;18335;51.486;7.562;2023-02-12T04:30:12;102316.19;;;7.66;100.00
31761;BME280;18335;51.486;7.562;2023-02-12T04:32:42;102318.41;;;7.74;100.00
31761;BME280;18335;51.486;7.562;2023-02-12T04:35:18;102324.91;;;7.71;100.00
31761;BME280;18335;51.486;7.562;2023-02-12T04:37:51;102327.75;;;7.70;100.00
31761;BME280;18335;51.486;7.562;2023-02-12T04:40:21;102329.28;;;7.74;100.00
31761;BME280;18335;51.486;7.562;2023-02-12T04:42:50;102329.09;;;7.77;100.00
31761;BME280;18335;51.486;7.562;2023-02-12T04:45:21;102332.50;;;7.66;100.00
31761;BME280;18335;51.486;7.562;2023-02-12T04:47:49;102332.09;;;7.72;100.00
31761;BME280;18335;51.486;7.562;2023-02-12T04:50:17;102335.69;;;7.73;100.00
31761;BME280;18335;51.486;7.562;2023-02-12T04:52:44;102339.06;;;7.76;100.00
31761;BME280;18335;51.486;7.562;2023-02-12T04:55:12;102331.53;;;7.82;100.00
31761;BME280;18335;51.486;7.562;2023-02-12T04:57:39;102346.16;;;7.65;100.00
31761;BME280;18335;51.486;7.562;2023-02-12T05:00:11;102335.00;;;7.69;100.00
31761;BME280;18335;51.486;7.562;2023-02-12T05:02:38;102338.13;;;7.77;100.00
31761;BME280;18335;51.486;7.562;2023-02-12T05:05:05;102331.91;;;7.75;100.00
31761;BME280;18335;51.486;7.562;2023-02-12T05:07:32;102341.22;;;7.71;100.00
31761;BME280;18335;51.486;7.562;2023-02-12T05:09:59;102329.00;;;7.78;100.00
31761;BME280;18335;51.486;7.562;2023-02-12T05:12:27;102334.44;;;7.78;100.00
31761;BME280;18335;51.486;7.562;2023-02-12T05:14:54;102338.50;;;7.71;100.00
31761;BME280;18335;51.486;7.562;2023-02-12T05:17:21;102334.31;;;7.80;100.00
31761;BME280;18335;51.486;7.562;2023-02-12T05:19:48;102334.72;;;7.74;100.00
31761;BME280;18335;51.486;7.562;2023-02-12T05:22:14;102337.72;;;7.69;100.00
31761;BME280;18335;51.486;7.562;2023-02-12T05:24:41;102345.88;;;7.69;100.00
31761;BME280;18335;51.486;7.562;2023-02-12T05:27:08;102344.31;;;7.65;100.00
31761;BME280;18335;51.486;7.562;2023-02-12T05:29:36;102344.25;;;7.67;100.00
31761;BME280;18335;51.486;7.562;2023-02-12T05:32:03;102348.03;;;7.78;100.00
31761;BME280;18335;51.486;7.562;2023-02-12T05:34:31;102344.50;;;7.76;100.00
31761;BME280;18335;51.486;7.562;2023-02-12T05:36:58;102345.31;;;7.78;100.00
31761;BME280;18335;51.486;7.562;2023-02-12T05:39:25;102345.31;;;7.64;100.00
31761;BME280;18335;51.486;7.562;2023-02-12T05:41:51;102350.44;;;7.69;100.00
31761;BME280;18335;51.486;7.562;2023-02-12T05:44:18;102352.84;;;7.59;100.00
31761;BME280;18335;51.486;7.562;2023-02-12T05:46:46;102350.16;;;7.73;100.00
31761;BME280;18335;51.486;7.562;2023-02-12T05:49:13;102356.13;;;7.50;100.00
31761;BME280;18335;51.486;7.562;2023-02-12T05:51:40;102344.94;;;7.70;100.00
31761;BME280;18335;51.486;7.562;2023-02-12T05:54:08;102345.31;;;7.64;100.00
31761;BME280;18335;51.486;7.562;2023-02-12T05:56:37;102341.78;;;7.62;100.00
31761;BME280;18335;51.486;7.562;2023-02-12T05:59:12;102344.03;;;7.70;100.00
31761;BME280;18335;51.486;7.562;2023-02-12T06:01:42;102350.13;;;7.59;100.00
31761;BME280;18335;51.486;7.562;2023-02-12T06:04:13;102357.22;;;7.62;100.00
31761;BME280;18335;51.486;7.562;2023-02-12T06:06:40;102359.28;;;7.58;100.00
31761;BME280;18335;51.486;7.562;2023-02-12T06:09:07;102351.69;;;7.49;100.00
31761;BME280;18335;51.486;7.562;2023-02-12T06:11:34;102357.78;;;7.53;100.00
31761;BME280;18335;51.486;7.562;2023-02-12T06:14:01;102362.25;;;7.54;100.00
31761;BME280;18335;51.486;7.562;2023-02-12T06:16:28;102357.97;;;7.50;100.00
31761;BME280;18335;51.486;7.562;2023-02-12T06:18:55;102359.78;;;7.35;100.00
31761;BME280;18335;51.486;7.562;2023-02-12T06:21:25;102354.97;;;7.54;100.00
31761;BME280;18335;51.486;7.562;2023-02-12T06:23:52;102354.66;;;7.31;100.00
31761;BME280;18335;51.486;7.562;2023-02-12T06:26:20;102361.16;;;7.42;100.00
31761;BME280;18335;51.486;7.562;2023-02-12T06:28:48;102359.34;;;7.43;100.00
31761;BME280;18335;51.486;7.562;2023-02-12T06:31:18;102359.53;;;7.54;100.00
31761;BME280;18335;51.486;7.562;2023-02-12T06:33:45;102369.84;;;7.63;100.00
31761;BME280;18335;51.486;7.562;2023-02-12T06:36:12;102364.31;;;7.64;100.00
31761;BME280;18335;51.486;7.562;2023-02-12T06:38:40;102365.47;;;7.60;100.00
31761;BME280;18335;51.486;7.562;2023-02-12T06:41:06;102365.09;;;7.66;100.00
31761;BME280;18335;51.486;7.562;2023-02-12T06:43:33;102363.03;;;7.56;100.00
31761;BME280;18335;51.486;7.562;2023-02-12T06:46:02;102364.97;;;7.54;100.00
31761;BME280;18335;51.486;7.562;2023-02-12T06:48:29;102375.97;;;7.66;100.00
31761;BME280;18335;51.486;7.562;2023-02-12T06:50:56;102376.22;;;7.62;100.00
31761;BME280;18335;51.486;7.562;2023-02-12T06:53:28;102377.34;;;7.73;100.00
31761;BME280;18335;51.486;7.562;2023-02-12T06:55:59;102377.59;;;7.69;100.00
31761;BME280;18335;51.486;7.562;2023-02-12T06:58:26;102378.19;;;7.74;100.00
31761;BME280;18335;51.486;7.562;2023-02-12T07:00:53;102383.16;;;7.67;100.00
31761;BME280;18335;51.486;7.562;2023-02-12T07:03:19;102383.16;;;7.67;100.00
31761;BME280;18335;51.486;7.562;2023-02-12T07:05:46;102384.31;;;7.77;100.00
31761;BME280;18335;51.486;7.562;2023-02-12T07:08:13;102382.16;;;7.82;100.00
31761;BME280;18335;51.486;7.562;2023-02-12T07:10:40;102390.44;;;7.81;100.00
31761;BME280;18335;51.486;7.562;2023-02-12T07:13:08;102390.44;;;7.81;100.00
31761;BME280;18335;51.486;7.562;2023-02-12T07:15:37;102390.25;;;7.84;100.00
31761;BME280;18335;51.486;7.562;2023-02-12T07:18:04;102387.59;;;7.82;100.00
31761;BME280;18335;51.486;7.562;2023-02-12T07:20:31;102390.31;;;7.82;100.00
31761;BME280;18335;51.486;7.562;2023-02-12T07:22:57;102397.63;;;7.82;100.00
31761;BME280;18335;51.486;7.562;2023-02-12T07:25:24;102397.44;;;7.85;100.00
31761;BME280;18335;51.486;7.562;2023-02-12T07:27:51;102403.72;;;7.86;100.00
31761;BME280;18335;51.486;7.562;2023-02-12T07:30:19;102406.63;;;7.82;100.00
31761;BME280;18335;51.486;7.562;2023-02-12T07:32:46;102409.78;;;7.91;100.00
31761;BME280;18335;51.486;7.562;2023-02-12T07:35:13;102419.25;;;7.84;100.00
31761;BME280;18335;51.486;7.562;2023-02-12T07:37:39;102417.91;;;7.91;100.00
31761;BME280;18335;51.486;7.562;2023-02-12T07:40:07;102408.13;;;7.88;100.00
31761;BME280;18335;51.486;7.562;2023-02-12T07:42:34;102421.41;;;7.93;100.00
31761;BME280;18335;51.486;7.562;2023-02-12T07:45:05;102421.78;;;8.01;100.00
31761;BME280;18335;51.486;7.562;2023-02-12T07:47:33;102421.41;;;8.07;100.00
31761;BME280;18335;51.486;7.562;2023-02-12T07:50:04;102417.03;;;8.18;100.00
31761;BME280;18335;51.486;7.562;2023-02-12T07:52:32;102414.31;;;8.04;100.00
31761;BME280;18335;51.486;7.562;2023-02-12T07:54:58;102421.22;;;8.10;100.00
31761;BME280;18335;51.486;7.562;2023-02-12T07:57:25;102421.03;;;8.13;100.00
31761;BME280;18335;51.486;7.562;2023-02-12T07:59:52;102425.38;;;8.15;100.00
31761;BME280;18335;51.486;7.562;2023-02-12T08:02:18;102435.78;;;8.23;100.00
31761;BME280;18335;51.486;7.562;2023-02-12T08:04:46;102430.75;;;8.17;100.00
31761;BME280;18335;51.486;7.562;2023-02-12T08:07:13;102434.03;;;8.22;100.00
31761;BME280;18335;51.486;7.562;2023-02-12T08:09:40;102439.41;;;8.09;100.00
31761;BME280;18335;51.486;7.562;2023-02-12T08:12:07;102430.69;;;8.32;100.00
31761;BME280;18335;51.486;7.562;2023-02-12T08:14:33;102433.09;;;8.37;100.00
31761;BME280;18335;51.486;7.562;2023-02-12T08:17:00;102439.91;;;8.44;100.00
31761;BME280;18335;51.486;7.562;2023-02-12T08:19:27;102434.84;;;8.38;100.00
31761;BME280;18335;51.486;7.562;2023-02-12T08:21:55;102433.31;;;8.48;100.00
31761;BME280;18335;51.486;7.562;2023-02-12T08:24:23;102434.81;;;8.66;100.00
31761;BME280;18335;51.486;7.562;2023-02-12T08:26:50;102439.81;;;8.60;100.00
31761;BME280;18335;51.486;7.562;2023-02-12T08:29:19;102444.25;;;8.75;100.00
31761;BME280;18335;51.486;7.562;2023-02-12T08:31:47;102451.94;;;8.68;100.00
31761;BME280;18335;51.486;7.562;2023-02-12T08:34:16;102440.94;;;8.70;100.00
31761;BME280;18335;51.486;7.562;2023-02-12T08:36:44;102444.25;;;8.75;100.00
31761;BME280;18335;51.486;7.562;2023-02-12T08:39:12;102443.38;;;8.74;100.00
31761;BME280;18335;51.486;7.562;2023-02-12T08:41:39;102448.81;;;8.74;100.00
31761;BME280;18335;51.486;7.562;2023-02-12T08:44:08;102447.88;;;8.88;100.00
31761;BME280;18335;51.486;7.562;2023-02-12T08:46:37;102447.88;;;8.88;100.00
31761;BME280;18335;51.486;7.562;2023-02-12T08:49:06;102445.44;;;8.98;100.00
31761;BME280;18335;51.486;7.562;2023-02-12T08:51:36;102450.41;;;8.91;100.00
31761;BME280;18335;51.486;7.562;2023-02-12T08:54:05;102452.06;;;8.94;100.00
31761;BME280;18335;51.486;7.562;2023-02-12T08:56:34;102449.03;;;8.98;100.00
31761;BME280;18335;51.486;7.562;2023-02-12T08:59:02;102464.53;;;8.83;100.00
31761;BME280;18335;51.486;7.562;2023-02-12T09:01:34;102467.81;;;8.88;100.00
31761;BME280;18335;51.486;7.562;2023-02-12T09:04:02;102463.75;;;8.96;100.00
31761;BME280;18335;51.486;7.562;2023-02-12T09:06:31;102470.03;;;8.96;100.00
31761;BME280;18335;51.486;7.562;2023-02-12T09:08:59;102468.56;;;9.05;100.00
31761;BME280;18335;51.486;7.562;2023-02-12T09:11:27;102466.00;;;9.16;100.00
31761;BME280;18335;51.486;7.562;2023-02-12T09:13:59;102466.56;;;9.21;100.00
31761;BME280;18335;51.486;7.562;2023-02-12T09:16:26;102471.53;;;9.41;100.00
31761;BME280;18335;51.486;7.562;2023-02-12T09:18:53;102470.09;;;9.35;100.00
31761;BME280;18335;51.486;7.562;2023-02-12T09:21:20;102474.25;;;9.41;100.00
31761;BME280;18335;51.486;7.562;2023-02-12T09:23:47;102476.34;;;9.50;100.00
31761;BME280;18335;51.486;7.562;2023-02-12T09:26:16;102475.47;;;9.37;100.00
31761;BME280;18335;51.486;7.562;2023-02-12T09:28:45;102477.78;;;9.43;100.00
31761;BME280;18335;51.486;7.562;2023-02-12T09:31:15;102470.44;;;9.31;100.00
31761;BME280;18335;51.486;7.562;2023-02-12T09:33:42;102478.06;;;9.38;100.00
31761;BME280;18335;51.486;7.562;2023-02-12T09:36:11;102479.63;;;9.42;100.00
31761;BME280;18335;51.486;7.562;2023-02-12T09:38:38;102482.72;;;9.63;100.00
31761;BME280;18335;51.486;7.562;2023-02-12T09:44:06;102484.66;;;9.49;100.00
31761;BME280;18335;51.486;7.562;2023-02-12T09:46:39;102485.38;;;9.77;100.00
31761;BME280;18335;51.486;7.562;2023-02-12T09:49:09;102483.06;;;9.71;100.00
31761;BME280;18335;51.486;7.562;2023-02-12T09:51:43;102490.78;;;9.65;100.00
31761;BME280;18335;51.486;7.562;2023-02-12T09:54:14;102485.94;;;9.82;100.00
31761;BME280;18335;51.486;7.562;2023-02-12T09:56:44;102488.72;;;9.68;100.00
31761;BME280;18335;51.486;7.562;2023-02-12T09:59:17;102488.72;;;9.68;100.00
31761;BME280;18335;51.486;7.562;2023-02-12T10:01:48;102486.22;;;9.65;100.00
31761;BME280;18335;51.486;7.562;2023-02-12T10:04:15;102495.44;;;9.89;100.00
31761;BME280;18335;51.486;7.562;2023-02-12T10:06:47;102492.50;;;9.92;100.00
31761;BME280;18335;51.486;7.562;2023-02-12T10:09:30;102490.06;;;10.15;100.00
31761;BME280;18335;51.486;7.562;2023-02-12T10:12:04;102490.91;;;10.28;100.00
31761;BME280;18335;51.486;7.562;2023-02-12T10:14:55;102487.22;;;10.29;100.00
31761;BME280;18335;51.486;7.562;2023-02-12T10:17:34;102497.09;;;10.05;100.00
31761;BME280;18335;51.486;7.562;2023-02-12T10:20:14;102486.53;;;10.00;100.00
31761;BME280;18335;51.486;7.562;2023-02-12T10:22:51;102490.91;;;10.28;100.00
31761;BME280;18335;51.486;7.562;2023-02-12T10:25:25;102497.69;;;10.22;100.00
31761;BME280;18335;51.486;7.562;2023-02-12T10:27:59;102485.69;;;10.25;100.00
31761;BME280;18335;51.486;7.562;2023-02-12T10:30:40;102491.97;;;10.13;100.00
31761;BME280;18335;51.486;7.562;2023-02-12T10:33:15;102479.78;;;10.43;100.00
31761;BME280;18335;51.486;7.562;2023-02-12T10:35:46;102487.09;;;10.43;100.00
31761;BME280;18335;51.486;7.562;2023-02-12T10:38:16;102492.44;;;10.32;100.00
31761;BME280;18335;51.486;7.562;2023-02-12T10:40:45;102487.00;;;10.57;100.00
31761;BME280;18335;51.486;7.562;2023-02-12T10:43:12;102487.31;;;10.65;100.00
31761;BME280;18335;51.486;7.562;2023-02-12T10:45:41;102484.13;;;10.71;100.00
31761;BME280;18335;51.486;7.562;2023-02-12T10:48:10;102479.25;;;10.51;100.00
31761;BME280;18335;51.486;7.562;2023-02-12T10:50:49;102485.91;;;10.34;100.00
31761;BME280;18335;51.486;7.562;2023-02-12T10:53:21;102484.28;;;10.32;100.00
31761;BME280;18335;51.486;7.562;2023-02-12T10:56:05;102481.31;;;10.60;100.00
31761;BME280;18335;51.486;7.562;2023-02-12T10:58:36;102472.25;;;10.47;100.00
31761;BME280;18335;51.486;7.562;2023-02-12T11:01:11;102476.63;;;10.37;100.00
31761;BME280;18335;51.486;7.562;2023-02-12T11:03:41;102477.94;;;10.44;100.00
31761;BME280;18335;51.486;7.562;2023-02-12T11:06:13;102474.31;;;10.56;100.00
31761;BME280;18335;51.486;7.562;2023-02-12T11:08:40;102471.91;;;10.64;100.00
31761;BME280;18335;51.486;7.562;2023-02-12T11:11:10;102473.34;;;10.57;100.00
31761;BME280;18335;51.486;7.562;2023-02-12T11:13:39;102476.09;;;10.44;100.00
31761;BME280;18335;51.486;7.562;2023-02-12T11:16:07;102470.25;;;10.74;100.00
31761;BME280;18335;51.486;7.562;2023-02-12T11:18:34;102465.00;;;10.71;100.00
31761;BME280;18335;51.486;7.562;2023-02-12T11:21:04;102459.09;;;10.77;100.00
31761;BME280;18335;51.486;7.562;2023-02-12T11:23:34;102459.75;;;10.81;100.00
31761;BME280;18335;51.486;7.562;2023-02-12T11:26:04;102451.91;;;11.00;100.00
31761;BME280;18335;51.486;7.562;2023-02-12T11:28:33;102455.25;;;10.92;100.00
31761;BME280;18335;51.486;7.562;2023-02-12T11:31:02;102449.09;;;11.25;100.00
31761;BME280;18335;51.486;7.562;2023-02-12T11:33:33;102449.00;;;10.90;100.00
31761;BME280;18335;51.486;7.562;2023-02-12T11:36:03;102445.41;;;10.90;100.00
31761;BME280;18335;51.486;7.562;2023-02-12T11:38:35;102452.03;;;10.62;100.00
31761;BME280;18335;51.486;7.562;2023-02-12T11:41:08;102448.16;;;11.14;100.00
31761;BME280;18335;51.486;7.562;2023-02-12T11:43:46;102450.28;;;10.97;100.00
31761;BME280;18335;51.486;7.562;2023-02-12T11:46:18;102444.34;;;11.16;100.00
31761;BME280;18335;51.486;7.562;2023-02-12T11:48:46;102442.56;;;11.15;100.00
31761;BME280;18335;51.486;7.562;2023-02-12T11:51:18;102440.50;;;11.19;100.00
31761;BME280;18335;51.486;7.562;2023-02-12T11:53:49;102441.78;;;10.66;100.00
31761;BME280;18335;51.486;7.562;2023-02-12T11:56:17;102450.13;;;10.75;100.00
31761;BME280;18335;51.486;7.562;2023-02-12T11:58:45;102451.81;;;10.52;100.00
31761;BME280;18335;51.486;7.562;2023-02-12T12:01:15;102445.38;;;10.66;100.00
31761;BME280;18335;51.486;7.562;2023-02-12T12:03:50;102446.56;;;10.62;100.00
31761;BME280;18335;51.486;7.562;2023-02-12T12:06:34;102438.69;;;10.57;100.00
31761;BME280;18335;51.486;7.562;2023-02-12T12:09:11;102441.34;;;10.09;100.00
31761;BME280;18335;51.486;7.562;2023-02-12T12:11:46;102441.13;;;10.37;100.00
31761;BME280;18335;51.486;7.562;2023-02-12T12:14:21;102432.06;;;10.49;100.00
31761;BME280;18335;51.486;7.562;2023-02-12T12:16:54;102428.81;;;10.31;100.00
31761;BME280;18335;51.486;7.562;2023-02-12T12:19:42;102429.34;;;10.36;100.00
31761;BME280;18335;51.486;7.562;2023-02-12T12:22:37;102418.91;;;10.18;100.00
31761;BME280;18335;51.486;7.562;2023-02-12T12:25:14;102418.03;;;10.30;100.00
31761;BME280;18335;51.486;7.562;2023-02-12T12:27:53;102404.78;;;10.11;100.00
31761;BME280;18335;51.486;7.562;2023-02-12T12:30:43;102408.41;;;10.12;100.00
31761;BME280;18335;51.486;7.562;2023-02-12T12:33:16;102404.34;;;10.05;100.00
31761;BME280;18335;51.486;7.562;2023-02-12T12:35:56;102404.69;;;10.25;100.00
31761;BME280;18335;51.486;7.562;2023-02-12T12:38:32;102401.63;;;10.05;100.00
31761;BME280;18335;51.486;7.562;2023-02-12T12:41:14;102400.78;;;9.91;100.00
31761;BME280;18335;51.486;7.562;2023-02-12T12:43:49;102402.19;;;9.84;100.00
31761;BME280;18335;51.486;7.562;2023-02-12T12:46:34;102391.59;;;10.05;100.00
31761;BME280;18335;51.486;7.562;2023-02-12T12:49:30;102391.41;;;10.21;100.00
31761;BME280;18335;51.486;7.562;2023-02-12T12:52:20;102396.28;;;10.28;100.00
31761;BME280;18335;51.486;7.562;2023-02-12T12:55:04;102381.72;;;10.53;100.00
31761;BME280;18335;51.486;7.562;2023-02-12T12:57:46;102391.72;;;10.16;100.00
31761;BME280;18335;51.486;7.562;2023-02-12T13:00:30;102393.66;;;9.89;100.00
31761;BME280;18335;51.486;7.562;2023-02-12T13:06:29;102384.38;;;10.04;100.00
31761;BME280;18335;51.486;7.562;2023-02-12T13:09:13;102371.22;;;10.23;100.00
31761;BME280;18335;51.486;7.562;2023-02-12T13:11:54;102369.13;;;10.27;100.00
31761;BME280;18335;51.486;7.562;2023-02-12T13:14:32;102368.78;;;10.31;100.00
31761;BME280;18335;51.486;7.562;2023-02-12T13:17:08;102356.69;;;10.35;100.00